Airfield :
LOGIN :

Register | Disclaimer

   EN    FR    IT 

 










Legend :    VFR   Marginal VFR   IFR   Intensive IFR   Very Intensive IFR
Visi :
Ceiling :
>= 8 km
>= 3000ft
5 to 8 km
1000 to 3000 ft
1500m to 5 km
500 to 1000 ft
800 to 1500m
200 to 500 ft
< 800m
< 200 ft
Symbols :   Thunderstorms  Fog  Heavy snow  Heavy precipitations  Wind > 20 kt
SIGMETs :     Misc.  Thunderstorms  Icing  Turbulence  Mountain Waves  Volcanic Ashes







- Airport Elevation : 218 ft
- IATA code : LBG
- Download approach charts


LFPB - Paris / Le Bourget

CURRENT METAR :
  • 201630Z AUTO 28014KT 260V340 9999 -RADZ OVC018 11/08 Q1000 TEMPO 29025G40KT 2500 RA BKN012 SCT015TCU

EXPIRED METARs :
  • 201600Z AUTO 28013KT 220V310 9999 OVC018 11/08 Q0999 TEMPO 29025G40KT 2500 RA BKN012 SCT015TCU
  • 201530Z AUTO 29017G31KT 9999 OVC022 11/08 Q0999 TEMPO 3000 RA SCT025TCU
  • 201500Z AUTO 28011KT 9999 BKN020 OVC025 11/09 Q0998 TEMPO 28025G40KT 3000 RA SCT025TCU
  • 201430Z AUTO 29010KT 9999 BKN020 OVC026 11/09 Q0998 TEMPO 28025G40KT 3000 RA SCT025TCU
  • 201400Z AUTO 27011KT 250V310 9999 BKN008 BKN016 OVC027 10/09 Q0997 TEMPO 28025G40KT 3000 RA SCT025TCU

TAF AMD TAF LFPB
Valid from the 20 at 15:00 until the 21 at 12:00 UTC


201540Z 2015/2112 27015G30KT 9999 BKN020
PROB40
TEMPO 2015/2021 29025G40KT 2500 RA BKN012 SCT015TCU
BECMG 2022/2101 32010KT
TEMPO 2103/2109 VRB03KT
BECMG 2110/2112 13005KT
BECMG 2108/2110 BKN007
TEMPO 2110/2112 3000 -RA BKN005
ATIS : +33 1 48 62 43 92
No reported NOTAMs for that airfield.
3 SIGMETs reported for the Paris FIR (LFFF) :
 
Severe turbulence
LFFF SIGMET 7 VALID 201700/202100 LFPW
LFFF PARIS FIR/UIR SEV TURB FCST NE OF LINE N4815 E00515 - N5045 E00100 FL180/310 MOV NE 15KT NC=
Severe turbulence
LFFF SIGMET 6 VALID 201600/202000 LFPW
LFFF PARIS FIR/UIR SEV TURB FCST WI N4800 W00015 - N5000 W00015 - N5030 E00045 - N4800 E00245 - N4800 W00015 SFC/FL060 STNR WKN=
Severe turbulence
LFFF SIGMET 5 VALID 201300/201700 LFPW
LFFF PARIS FIR/UIR SEV TURB FCST WI N5030 E00045 - N5115 E00200 - N4945 E00515 - N4915 E00415 - N5030 E00045 FL180/310 MOV SE 50KT NC=



MET'MAP, your aeronautical weather chart ! - Copyright ORBIFLY December 2007 - Disclaimer

ORBIFLY MET'MAP TEAM :

Programming & Development : Alexandra Zaïnal
Concept & Development : Baudouin d'Aumeries
Co-Development & Prog : Marc-Olivier Méhu
Technical & hardware support : Manuel Goepfert

Contact : metmap@orbifly.com




SOURCES & CREDITS :

   NOAA